ベルリン/テーゲル の空港の天気 - METARとTAF

ベルリン・テーゲル国際空港 ( EDDT / TXL ) - ドイツ ベルリン
飛行場実況気象(Metar)
観測時間02/17 15:50 CET (02/17 14:50 UTC)
風向・風速南東 3m/s
視程10km以上
天気現象
なし
気温13℃
湿度47%
気圧1023hPa
METAREDDT 171450Z 13006KT 090V150 CAVOK 13/02 Q1023 NOSIG
過去の天気等 Google飛行場航空写真 Wunderground天気予報

過去48時間のMETAR

飛行場予報(TAF)
発表時間: 2/17 12:00 CET (2/17 11:00 UTC)
予報対象時間: 17日13時 CET ~ 18日13時 CET
風向・風速南南東 2m/s
視程10km以上
なし
18日9時 CET ~ 18日11時 CET に徐々に
風向・風速南西 3m/s
TAF EDDT 171100Z 1712/1812 16004KT CAVOK
BECMG 1808/1810 22005KT